Terminal Aerodrome Forecast
Issued by NWS

Home | Current Version | Previous Version | Text Only | Print | Product List | Glossary On
Versions: 1 2 3 4 5 6 7 8 9 10 11 12 13 14 15 16 17 18 19
000
FTUS41 KPBZ 211724
TAFAGC
TAF
KAGC 211724Z 2118/2218 VRB03KT P6SM SCT050
     FM220800 00000KT 3SM BR SKC
      TEMPO 2210/2213 1/2SM FG VV002
     FM221400 00000KT P6SM SKC
     FM221600 VRB03KT P6SM SCT050=

USA.gov is the U.S. government's official web portal to all federal, state and local government web resources and services.